createdAt,value
2018-12-11T00:01:17.107Z,83.08
2018-12-11T00:03:45.387Z,82.49
2018-12-11T00:06:13.414Z,82.66
2018-12-11T00:08:41.021Z,82.46
2018-12-11T00:11:08.635Z,82.30
2018-12-11T00:13:36.222Z,82.70
2018-12-11T00:16:04.433Z,82.28
2018-12-11T00:18:32.054Z,82.43
2018-12-11T00:21:00.096Z,82.69
2018-12-11T00:23:27.718Z,82.54
2018-12-11T00:25:56.116Z,82.58
2018-12-11T00:28:23.724Z,82.39
2018-12-11T00:30:51.802Z,82.70
2018-12-11T00:33:19.470Z,82.92
2018-12-11T00:35:47.097Z,82.80
2018-12-11T00:38:15.045Z,82.48
2018-12-11T00:40:42.620Z,82.72
2018-12-11T00:43:10.253Z,83.11
2018-12-11T00:45:37.854Z,82.40
2018-12-11T00:48:05.473Z,82.61
2018-12-11T00:50:33.047Z,82.70
2018-12-11T00:53:00.693Z,82.69
2018-12-11T00:55:28.761Z,82.87
2018-12-11T00:57:56.393Z,82.80
2018-12-11T01:00:24.046Z,82.61
2018-12-11T01:02:52.069Z,82.93
2018-12-11T01:05:19.718Z,82.73
2018-12-11T01:07:48.101Z,82.73
2018-12-11T01:10:15.795Z,82.50
2018-12-11T01:12:43.773Z,82.52
2018-12-11T01:15:11.377Z,82.44
2018-12-11T01:17:38.985Z,81.97
2018-12-11T01:20:06.954Z,82.06
2018-12-11T01:22:34.582Z,82.20
2018-12-11T01:25:02.189Z,82.84
2018-12-11T01:27:29.849Z,82.85
2018-12-11T01:29:57.801Z,82.62
2018-12-11T01:32:25.439Z,82.88
2018-12-11T01:34:53.142Z,82.69
2018-12-11T01:37:20.798Z,82.80
2018-12-11T01:39:48.890Z,82.96
2018-12-11T01:42:16.517Z,83.08
2018-12-11T01:44:44.104Z,82.94
2018-12-11T01:47:11.701Z,83.28
2018-12-11T01:49:39.333Z,83.06
2018-12-11T01:52:07.013Z,83.21
2018-12-11T01:54:35.091Z,83.65
2018-12-11T01:57:02.698Z,83.51
2018-12-11T01:59:30.305Z,83.22
2018-12-11T02:01:57.884Z,83.51
2018-12-11T02:04:26.734Z,83.03
2018-12-11T02:06:54.331Z,83.41
2018-12-11T02:09:21.924Z,83.28
2018-12-11T02:11:49.518Z,83.98
2018-12-11T02:14:17.420Z,83.76
2018-12-11T02:16:45.029Z,83.96
2018-12-11T02:19:12.597Z,83.83
2018-12-11T02:21:42.163Z,84.00
2018-12-11T02:24:09.909Z,83.98
2018-12-11T02:26:37.499Z,83.38
2018-12-11T02:29:05.589Z,84.01
2018-12-11T02:31:33.228Z,83.39
2018-12-11T02:34:00.831Z,83.93
2018-12-11T02:36:28.513Z,83.55
2018-12-11T02:38:56.543Z,83.36
2018-12-11T02:41:24.142Z,83.60
2018-12-11T02:43:51.775Z,83.57
2018-12-11T02:46:19.802Z,84.03
2018-12-11T02:48:47.369Z,83.57
2018-12-11T02:51:14.949Z,83.86
2018-12-11T02:53:42.557Z,83.44
2018-12-11T02:56:10.645Z,83.74
2018-12-11T02:58:38.263Z,82.91
2018-12-11T03:01:05.952Z,83.14
2018-12-11T03:03:33.563Z,82.78
2018-12-11T03:06:01.651Z,83.21
2018-12-11T03:08:29.266Z,82.83
2018-12-11T03:10:56.889Z,82.79
2018-12-11T03:13:24.511Z,82.93
2018-12-11T03:15:52.596Z,82.99
2018-12-11T03:18:20.195Z,82.68
2018-12-11T03:20:47.817Z,83.09
2018-12-11T03:23:15.392Z,83.48
2018-12-11T03:25:43.362Z,83.20
2018-12-11T03:28:10.982Z,83.54
2018-12-11T03:30:38.645Z,83.64
2018-12-11T03:33:06.266Z,83.73
2018-12-11T03:35:34.313Z,83.68
2018-12-11T03:38:01.939Z,83.16
2018-12-11T03:40:29.960Z,83.14
2018-12-11T03:42:57.594Z,83.54
2018-12-11T03:45:25.625Z,83.56
2018-12-11T03:47:53.315Z,82.85
2018-12-11T03:50:20.947Z,82.72
2018-12-11T03:52:48.635Z,82.91
2018-12-11T03:55:21.280Z,82.67
2018-12-11T03:57:48.847Z,82.77
2018-12-11T04:00:16.417Z,82.84
2018-12-11T04:02:44.396Z,82.80
2018-12-11T04:05:12.005Z,82.68
2018-12-11T04:07:39.588Z,82.86
2018-12-11T04:10:07.503Z,82.66
2018-12-11T04:12:35.365Z,82.40
2018-12-11T04:15:02.949Z,82.76
2018-12-11T04:17:30.895Z,82.58
2018-12-11T04:19:58.465Z,82.93
2018-12-11T04:22:26.077Z,82.97
2018-12-11T04:24:53.673Z,82.88
2018-12-11T04:27:21.717Z,82.79
2018-12-11T04:29:49.323Z,83.39
2018-12-11T04:32:16.939Z,82.94
2018-12-11T04:34:44.853Z,83.18
2018-12-11T04:37:12.515Z,83.31
2018-12-11T04:39:40.125Z,83.70
2018-12-11T04:42:07.745Z,83.78
2018-12-11T04:44:35.692Z,83.64
2018-12-11T04:47:03.339Z,83.61
2018-12-11T04:49:30.986Z,83.52
2018-12-11T04:51:58.983Z,83.21
2018-12-11T04:54:26.621Z,83.18
2018-12-11T04:56:54.265Z,83.61
2018-12-11T04:59:21.821Z,83.52
2018-12-11T05:01:49.830Z,83.00
2018-12-11T05:04:17.478Z,83.11
2018-12-11T05:06:45.954Z,82.93
2018-12-11T05:09:13.551Z,83.25
2018-12-11T05:11:41.513Z,83.31
2018-12-11T05:14:09.152Z,83.16
2018-12-11T05:16:36.765Z,83.51
2018-12-11T05:19:05.775Z,83.04
2018-12-11T05:21:33.531Z,83.34
2018-12-11T05:24:01.097Z,83.06
2018-12-11T05:26:28.666Z,83.67
2018-12-11T05:28:56.704Z,83.98
2018-12-11T05:31:24.321Z,84.00
2018-12-11T05:33:51.922Z,83.75
2018-12-11T05:36:19.871Z,84.15
2018-12-11T05:38:47.479Z,83.72
2018-12-11T05:41:15.052Z,84.34
2018-12-11T05:43:43.070Z,84.39
2018-12-11T05:46:10.741Z,83.99
2018-12-11T05:48:38.326Z,84.04
2018-12-11T05:51:06.360Z,83.70
2018-12-11T05:53:33.967Z,83.83
2018-12-11T05:56:01.863Z,83.88
2018-12-11T05:58:29.861Z,83.27
2018-12-11T06:00:57.517Z,83.37
2018-12-11T06:03:25.118Z,83.11
2018-12-11T06:05:53.053Z,83.66
2018-12-11T06:08:20.757Z,83.22
2018-12-11T06:10:48.346Z,83.22
2018-12-11T06:13:16.346Z,83.37
2018-12-11T06:15:44.513Z,83.12
2018-12-11T06:18:12.072Z,83.02
2018-12-11T06:20:40.268Z,82.77
2018-12-11T06:23:07.921Z,83.19
2018-12-11T06:25:35.556Z,83.29
2018-12-11T06:28:03.499Z,82.93
2018-12-11T06:30:31.078Z,83.08
2018-12-11T06:32:58.707Z,83.19
2018-12-11T06:35:26.698Z,83.37
2018-12-11T06:37:54.288Z,83.26
2018-12-11T06:40:22.565Z,83.97
2018-12-11T06:42:50.628Z,84.25
2018-12-11T06:45:18.234Z,83.73
2018-12-11T06:47:45.874Z,83.98
2018-12-11T06:50:15.862Z,84.20
2018-12-11T06:52:43.448Z,84.16
2018-12-11T06:55:12.378Z,84.38
2018-12-11T06:57:40.274Z,84.35
2018-12-11T07:00:07.958Z,84.14
2018-12-11T07:02:35.572Z,83.75
2018-12-11T07:05:03.460Z,83.68
2018-12-11T07:07:31.042Z,83.25
2018-12-11T07:09:58.641Z,83.18
2018-12-11T07:12:26.601Z,83.26
2018-12-11T07:14:54.261Z,83.19
2018-12-11T07:17:21.868Z,83.18
2018-12-11T07:19:49.486Z,83.09
2018-12-11T07:22:17.093Z,83.09
2018-12-11T07:24:44.990Z,83.05
2018-12-11T07:27:12.560Z,82.71
2018-12-11T07:29:40.173Z,82.88
2018-12-11T07:32:08.129Z,83.18
2018-12-11T07:34:35.684Z,82.92
2018-12-11T07:37:03.275Z,83.44
2018-12-11T07:39:31.366Z,83.45
2018-12-11T07:41:59.030Z,83.30
2018-12-11T07:44:26.646Z,83.16
2018-12-11T07:46:57.585Z,82.83
2018-12-11T07:49:26.204Z,82.97
2018-12-11T07:51:53.814Z,83.06
2018-12-11T07:54:21.743Z,82.99
2018-12-11T07:56:49.505Z,83.07
2018-12-11T07:59:17.767Z,83.15
2018-12-11T08:01:45.750Z,82.94
2018-12-11T08:04:13.365Z,82.96
2018-12-11T08:06:40.955Z,82.56
2018-12-11T08:09:09.068Z,82.47
2018-12-11T08:11:36.672Z,82.27
2018-12-11T08:14:04.264Z,82.59
2018-12-11T08:16:32.632Z,82.43
2018-12-11T08:19:00.373Z,82.13
2018-12-11T08:21:27.993Z,82.04
2018-12-11T08:23:55.989Z,82.48
2018-12-11T08:26:23.625Z,82.14
2018-12-11T08:28:51.233Z,82.72
2018-12-11T08:31:19.222Z,82.46
2018-12-11T08:33:47.397Z,82.75
2018-12-11T08:36:15.031Z,82.63
2018-12-11T08:38:43.020Z,82.50
2018-12-11T08:41:10.655Z,82.79
2018-12-11T08:43:38.305Z,82.27
2018-12-11T08:46:06.181Z,82.17
2018-12-11T08:48:33.825Z,81.87
2018-12-11T08:51:01.433Z,82.21
2018-12-11T08:53:29.481Z,81.71
2018-12-11T08:55:57.100Z,81.63
2018-12-11T08:58:24.701Z,81.88
2018-12-11T09:00:53.373Z,82.30
2018-12-11T09:03:21.927Z,81.72
2018-12-11T09:05:49.533Z,82.02
2018-12-11T09:08:17.483Z,81.25
2018-12-11T09:10:45.133Z,81.78
2018-12-11T09:13:12.713Z,81.99
2018-12-11T09:15:40.695Z,81.92
2018-12-11T09:18:08.324Z,81.74
2018-12-11T09:20:35.921Z,82.18
2018-12-11T09:23:03.799Z,82.27
2018-12-11T09:25:31.731Z,81.51
2018-12-11T09:28:00.876Z,81.92
2018-12-11T09:30:30.029Z,81.69
2018-12-11T09:32:57.593Z,81.26
2018-12-11T09:35:26.512Z,81.55
2018-12-11T09:37:54.451Z,81.23
2018-12-11T09:40:24.588Z,81.34
2018-12-11T09:42:51.801Z,81.56
2018-12-11T09:45:19.721Z,81.45
2018-12-11T09:47:47.356Z,81.52
2018-12-11T09:50:14.981Z,81.07
2018-12-11T09:52:42.979Z,81.55
2018-12-11T09:55:10.593Z,81.05
2018-12-11T09:57:39.579Z,81.12
2018-12-11T10:00:10.461Z,80.95
2018-12-11T10:02:38.082Z,80.43
2018-12-11T10:05:05.709Z,81.44
2018-12-11T10:07:33.618Z,80.87
2018-12-11T10:10:01.277Z,80.80
2018-12-11T10:12:29.428Z,81.04
2018-12-11T10:14:57.527Z,81.28
2018-12-11T10:17:25.128Z,81.00
2018-12-11T10:19:52.733Z,80.63
2018-12-11T10:22:20.822Z,81.34
2018-12-11T10:24:48.457Z,81.03
2018-12-11T10:27:17.512Z,81.03
2018-12-11T10:29:46.289Z,81.32
2018-12-11T10:32:13.918Z,81.03
2018-12-11T10:34:41.541Z,80.79
2018-12-11T10:37:10.470Z,80.49
2018-12-11T10:39:38.102Z,80.70
2018-12-11T10:42:05.757Z,80.20
2018-12-11T10:44:34.491Z,80.24
2018-12-11T10:47:02.989Z,79.88
2018-12-11T10:49:30.601Z,80.16
2018-12-11T10:51:58.700Z,79.79
2018-12-11T10:54:26.320Z,79.76
2018-12-11T10:56:53.937Z,79.27
2018-12-11T10:59:22.753Z,78.92
2018-12-11T11:01:54.313Z,78.28
2018-12-11T11:04:22.865Z,77.33
2018-12-11T11:06:50.877Z,76.92
2018-12-11T11:09:18.458Z,76.32
2018-12-11T11:11:46.086Z,75.95
2018-12-11T11:14:14.120Z,76.65
2018-12-11T11:16:41.721Z,76.56
2018-12-11T11:19:09.322Z,77.13
2018-12-11T11:21:38.161Z,77.23
2018-12-11T11:24:05.737Z,77.00
2018-12-11T11:26:33.490Z,77.30
2018-12-11T11:29:01.393Z,76.47
2018-12-11T11:31:28.977Z,77.02
2018-12-11T11:33:58.471Z,76.60
2018-12-11T11:36:26.631Z,76.75
2018-12-11T11:38:54.233Z,77.00
2018-12-11T11:41:21.829Z,77.15
2018-12-11T11:43:49.816Z,77.48
2018-12-11T11:46:17.421Z,78.40
2018-12-11T11:48:45.068Z,78.18
2018-12-11T11:51:13.083Z,77.94
2018-12-11T11:53:40.648Z,78.41
2018-12-11T11:56:12.234Z,78.41
2018-12-11T11:58:40.313Z,78.70
2018-12-11T12:01:07.985Z,78.22
2018-12-11T12:03:35.592Z,78.27
2018-12-11T12:06:03.507Z,78.66
2018-12-11T12:08:31.163Z,78.15
2018-12-11T12:10:58.829Z,78.04
2018-12-11T12:13:27.961Z,78.36
2018-12-11T12:15:56.321Z,78.49
2018-12-11T12:18:27.466Z,78.69
2018-12-11T12:20:55.618Z,78.30
2018-12-11T12:23:23.466Z,78.34
2018-12-11T12:25:52.470Z,78.46
2018-12-11T12:28:20.134Z,78.40
2018-12-11T12:30:48.269Z,78.76
2018-12-11T12:33:16.198Z,78.60
2018-12-11T12:35:44.434Z,78.41
2018-12-11T12:38:12.032Z,78.50
2018-12-11T12:40:40.110Z,78.10
2018-12-11T12:43:07.778Z,78.00
2018-12-11T12:45:35.646Z,77.87
2018-12-11T12:48:03.757Z,77.91
2018-12-11T12:50:32.654Z,77.80
2018-12-11T12:53:00.267Z,78.04
2018-12-11T12:55:28.233Z,77.87
2018-12-11T12:57:56.719Z,77.69
2018-12-11T13:00:24.342Z,77.72
2018-12-11T13:02:52.545Z,77.92
2018-12-11T13:05:20.174Z,77.76
2018-12-11T13:07:48.726Z,77.74
2018-12-11T13:10:16.680Z,78.44
2018-12-11T13:12:44.442Z,78.51
2018-12-11T13:15:12.081Z,77.94
2018-12-11T13:17:40.103Z,77.92
2018-12-11T13:20:10.680Z,77.94
2018-12-11T13:22:38.269Z,78.44
2018-12-11T13:25:06.274Z,78.35
2018-12-11T13:27:33.876Z,77.83
2018-12-11T13:30:01.468Z,78.08
2018-12-11T13:32:29.358Z,78.34
2018-12-11T13:34:58.389Z,78.33
2018-12-11T13:37:26.187Z,78.39
2018-12-11T13:39:54.123Z,78.90
2018-12-11T13:42:21.729Z,78.43
2018-12-11T13:44:49.341Z,78.18
2018-12-11T13:47:17.441Z,78.08
2018-12-11T13:49:45.684Z,77.79
2018-12-11T13:52:13.904Z,77.58
2018-12-11T13:54:41.841Z,77.63
2018-12-11T13:57:09.524Z,77.98
2018-12-11T13:59:37.292Z,78.15
2018-12-11T14:02:05.247Z,78.40
2018-12-11T14:04:33.589Z,78.76
2018-12-11T14:07:01.292Z,78.75
2018-12-11T14:09:34.379Z,78.40
2018-12-11T14:12:02.826Z,78.52
2018-12-11T14:14:30.446Z,78.20
2018-12-11T14:16:58.472Z,78.48
2018-12-11T14:19:26.102Z,78.16
2018-12-11T14:21:53.725Z,78.74
2018-12-11T14:24:22.556Z,78.56
2018-12-11T14:26:50.203Z,78.71
2018-12-11T14:29:17.830Z,78.60
2018-12-11T14:31:45.857Z,78.91
2018-12-11T14:34:13.445Z,78.90
2018-12-11T14:36:41.750Z,78.70
2018-12-11T14:39:09.758Z,78.86
2018-12-11T14:41:37.389Z,78.70
2018-12-11T14:44:05.014Z,78.66
2018-12-11T14:46:33.599Z,79.20
2018-12-11T14:49:01.237Z,78.66
2018-12-11T14:51:29.917Z,78.54
2018-12-11T14:53:58.816Z,79.45
2018-12-11T14:56:26.436Z,79.45
2018-12-11T14:58:54.762Z,79.07
2018-12-11T15:01:23.514Z,79.02
2018-12-11T15:03:51.229Z,79.11
2018-12-11T15:06:19.525Z,79.08
2018-12-11T15:08:47.401Z,78.80
2018-12-11T15:11:15.780Z,79.37
2018-12-11T15:13:43.629Z,79.25
2018-12-11T15:16:12.372Z,79.51
2018-12-11T15:18:40.112Z,79.34
2018-12-11T15:21:08.347Z,79.71
2018-12-11T15:23:36.387Z,79.70
2018-12-11T15:26:05.430Z,79.43
2018-12-11T15:28:33.237Z,79.52
2018-12-11T15:31:01.213Z,79.91
2018-12-11T15:33:28.792Z,79.35
2018-12-11T15:35:56.383Z,79.51
2018-12-11T15:38:24.565Z,79.52
2018-12-11T15:40:52.947Z,79.74
2018-12-11T15:43:21.667Z,79.27
2018-12-11T15:45:53.408Z,80.14
2018-12-11T15:48:22.358Z,79.61
2018-12-11T15:50:51.958Z,80.24
2018-12-11T15:53:19.968Z,80.40
2018-12-11T15:55:47.594Z,80.16
2018-12-11T15:58:15.758Z,80.26
2018-12-11T16:00:43.827Z,80.45
2018-12-11T16:03:11.696Z,80.78
2018-12-11T16:05:39.597Z,80.62
2018-12-11T16:08:07.587Z,80.22
2018-12-11T16:10:35.213Z,80.90
2018-12-11T16:13:03.536Z,80.27
2018-12-11T16:15:32.697Z,80.52
2018-12-11T16:18:00.742Z,80.57
2018-12-11T16:20:28.715Z,80.81
2018-12-11T16:22:57.320Z,80.71
2018-12-11T16:25:26.699Z,80.14
2018-12-11T16:27:57.660Z,80.20
2018-12-11T16:30:26.289Z,80.44
2018-12-11T16:32:55.081Z,80.17
2018-12-11T16:35:23.315Z,80.39
2018-12-11T16:37:51.541Z,80.45
2018-12-11T16:40:20.143Z,81.27
2018-12-11T16:42:47.776Z,81.11
2018-12-11T16:45:15.861Z,81.12
2018-12-11T16:47:45.556Z,81.35
2018-12-11T16:50:13.167Z,80.91
2018-12-11T16:52:42.914Z,80.69
2018-12-11T16:55:10.603Z,80.63
2018-12-11T16:57:38.353Z,81.23
2018-12-11T17:00:06.390Z,81.01
2018-12-11T17:02:33.982Z,80.81
2018-12-11T17:05:01.566Z,80.81
2018-12-11T17:07:29.777Z,81.10
2018-12-11T17:09:57.573Z,80.78
2018-12-11T17:12:25.421Z,81.22
2018-12-11T17:14:54.746Z,80.40
2018-12-11T17:17:23.557Z,80.80
2018-12-11T17:19:51.213Z,80.32
2018-12-11T17:22:19.791Z,80.88
2018-12-11T17:24:47.461Z,80.67
2018-12-11T17:27:15.457Z,80.55
2018-12-11T17:29:43.037Z,80.78
2018-12-11T17:32:10.712Z,80.44
2018-12-11T17:34:38.741Z,80.59
2018-12-11T17:37:06.373Z,80.33
2018-12-11T17:39:33.948Z,80.37
2018-12-11T17:42:01.916Z,80.36
2018-12-11T17:44:29.558Z,80.38
2018-12-11T17:47:00.811Z,80.72
2018-12-11T17:49:28.804Z,80.23
2018-12-11T17:52:02.743Z,80.92
2018-12-11T17:54:31.238Z,80.61
2018-12-11T17:56:59.509Z,80.30
2018-12-11T17:59:28.785Z,80.86
2018-12-11T18:02:01.331Z,80.85
2018-12-11T18:04:31.130Z,80.95
2018-12-11T18:06:58.928Z,80.63
2018-12-11T18:09:28.533Z,80.60
2018-12-11T18:11:56.184Z,80.75
2018-12-11T18:14:24.666Z,80.58
2018-12-11T18:16:52.578Z,81.10
2018-12-11T18:19:24.097Z,80.37
2018-12-11T18:21:52.504Z,80.79
2018-12-11T18:24:20.508Z,80.61
2018-12-11T18:26:50.472Z,81.10
2018-12-11T18:29:18.200Z,80.76
2018-12-11T18:31:46.892Z,80.57
2018-12-11T18:34:14.736Z,81.12
2018-12-11T18:36:42.444Z,81.07
2018-12-11T18:39:13.603Z,80.40
2018-12-11T18:41:41.273Z,80.88
2018-12-11T18:44:08.840Z,80.60
2018-12-11T18:46:36.750Z,80.79
2018-12-11T18:49:05.281Z,80.59
2018-12-11T18:51:33.404Z,80.74
2018-12-11T18:54:02.292Z,81.19
2018-12-11T18:56:29.928Z,80.59
2018-12-11T18:58:57.532Z,80.70
2018-12-11T19:01:28.201Z,81.05
2018-12-11T19:03:56.514Z,80.78
2018-12-11T19:06:24.769Z,80.42
2018-12-11T19:08:53.679Z,80.76
2018-12-11T19:11:23.562Z,81.05
2018-12-11T19:13:51.966Z,81.05
2018-12-11T19:16:20.045Z,80.71
2018-12-11T19:18:48.326Z,80.62
2018-12-11T19:21:16.866Z,81.12
2018-12-11T19:23:45.141Z,80.38
2018-12-11T19:26:13.077Z,81.14
2018-12-11T19:28:40.666Z,81.17
2018-12-11T19:31:13.580Z,80.98
2018-12-11T19:33:41.993Z,81.22
2018-12-11T19:36:09.918Z,80.81
2018-12-11T19:38:38.618Z,80.89
2018-12-11T19:41:09.333Z,80.89
2018-12-11T19:43:37.313Z,81.13
2018-12-11T19:46:06.073Z,81.08
2018-12-11T19:48:33.717Z,80.93
2018-12-11T19:51:04.625Z,81.33
2018-12-11T19:53:33.025Z,81.01
2018-12-11T19:56:01.081Z,81.53
2018-12-11T19:58:28.660Z,81.26
2018-12-11T20:00:56.253Z,80.59
2018-12-11T20:03:24.149Z,80.80
2018-12-11T20:05:51.771Z,81.24
2018-12-11T20:08:19.374Z,81.08
2018-12-11T20:10:49.870Z,80.68
2018-12-11T20:13:17.478Z,80.80
2018-12-11T20:15:46.065Z,80.58
2018-12-11T20:18:14.024Z,81.03
2018-12-11T20:20:43.240Z,80.93
2018-12-11T20:23:11.470Z,80.89
2018-12-11T20:25:42.216Z,81.34
2018-12-11T20:28:09.901Z,80.75
2018-12-11T20:30:37.566Z,81.38
2018-12-11T20:33:06.629Z,80.88
2018-12-11T20:35:35.057Z,81.60
2018-12-11T20:38:03.654Z,81.06
2018-12-11T20:40:32.450Z,81.32
2018-12-11T20:43:00.553Z,81.31
2018-12-11T20:45:28.185Z,81.44
2018-12-11T20:48:00.899Z,81.41
2018-12-11T20:50:28.778Z,81.38
2018-12-11T20:52:56.621Z,81.67
2018-12-11T20:55:24.502Z,81.34
2018-12-11T20:57:52.631Z,81.36
2018-12-11T21:00:20.276Z,81.64
2018-12-11T21:02:48.525Z,82.25
2018-12-11T21:05:16.526Z,81.97
2018-12-11T21:07:44.136Z,81.93
2018-12-11T21:10:12.099Z,82.12
2018-12-11T21:12:39.675Z,81.45
2018-12-11T21:15:07.788Z,81.53
2018-12-11T21:17:37.846Z,81.24
2018-12-11T21:20:05.494Z,81.28
2018-12-11T21:22:33.146Z,81.50
2018-12-11T21:25:01.224Z,81.55
2018-12-11T21:27:28.873Z,81.11
2018-12-11T21:29:56.488Z,81.70
2018-12-11T21:32:24.105Z,81.88
2018-12-11T21:34:51.985Z,81.15
2018-12-11T21:37:19.544Z,81.61
2018-12-11T21:39:47.171Z,81.53
2018-12-11T21:42:15.237Z,81.39
2018-12-11T21:44:43.773Z,81.53
2018-12-11T21:47:11.398Z,81.60
2018-12-11T21:49:39.333Z,81.78
2018-12-11T21:52:08.332Z,81.93
2018-12-11T21:54:36.727Z,82.24
2018-12-11T21:57:04.654Z,81.98
2018-12-11T21:59:32.252Z,82.34
2018-12-11T22:01:59.830Z,82.36
2018-12-11T22:04:28.448Z,82.45
2018-12-11T22:06:56.067Z,82.40
2018-12-11T22:09:23.730Z,82.07
2018-12-11T22:11:51.725Z,82.11
2018-12-11T22:14:19.433Z,82.68
2018-12-11T22:16:47.002Z,82.95
2018-12-11T22:19:14.970Z,82.51
2018-12-11T22:21:43.133Z,82.98
2018-12-11T22:24:10.747Z,82.98
2018-12-11T22:26:39.483Z,82.92
2018-12-11T22:29:07.697Z,83.18
2018-12-11T22:31:35.282Z,83.41
2018-12-11T22:34:03.042Z,82.90
2018-12-11T22:36:31.058Z,83.49
2018-12-11T22:38:58.634Z,82.79
2018-12-11T22:41:26.896Z,83.49
2018-12-11T22:43:54.554Z,83.43
2018-12-11T22:46:22.673Z,83.26
2018-12-11T22:48:50.437Z,83.20
2018-12-11T22:51:18.338Z,83.17
2018-12-11T22:53:46.377Z,83.14
2018-12-11T22:56:13.967Z,83.48
2018-12-11T22:58:41.691Z,83.24
2018-12-11T23:01:09.364Z,83.01
2018-12-11T23:03:37.381Z,83.05
2018-12-11T23:06:05.032Z,82.76
2018-12-11T23:08:32.621Z,82.63
2018-12-11T23:11:00.221Z,82.56
2018-12-11T23:13:28.169Z,82.60
2018-12-11T23:15:56.297Z,82.39
2018-12-11T23:18:23.814Z,82.48
2018-12-11T23:20:51.345Z,82.47
2018-12-11T23:23:18.915Z,82.39
2018-12-11T23:25:46.483Z,82.23
2018-12-11T23:28:14.423Z,81.84
2018-12-11T23:30:41.928Z,81.64
2018-12-11T23:33:09.605Z,82.41
2018-12-11T23:35:37.135Z,81.62
2018-12-11T23:38:05.092Z,82.03
2018-12-11T23:40:32.643Z,82.30
2018-12-11T23:43:00.139Z,82.10
2018-12-11T23:45:27.644Z,81.81
2018-12-11T23:47:55.602Z,81.57
2018-12-11T23:50:24.121Z,81.78
2018-12-11T23:52:51.657Z,82.37
2018-12-11T23:55:19.164Z,82.07
2018-12-11T23:57:48.450Z,81.63
